Time;durP1;ratioP1;P1;durP2;ratioP2;P2;SDS_P1;SDS_P2;PMS_P1;PMS_P2;Temp;Humidity;BMP_temperature;BMP_pressure;BME280_temperature;BME280_humidity;BME280_pressure;Samples;Min_cycle;Max_cycle;Signal;HPM_P1;HPM_P2
2023/04/08 00:03:09;;;;;;;18.58;12.93;;;;;;;6.52;100.00;102288.75;10168972;28;20046;-67
2023/04/08 00:08:06;;;;;;;20.63;13.15;;;;;;;6.34;100.00;102280.09;10171447;28;20049;-67
2023/04/08 00:13:03;;;;;;;18.77;12.93;;;;;;;6.55;100.00;102292.06;10172443;28;20570;-67
2023/04/08 00:17:59;;;;;;;17.50;11.02;;;;;;;6.43;100.00;102301.13;10166372;28;20158;-67
2023/04/08 00:22:56;;;;;;;20.42;12.55;;;;;;;6.43;100.00;102292.97;10168780;28;20424;-67
2023/04/08 00:27:52;;;;;;;18.27;12.35;;;;;;;6.51;100.00;102303.41;10171745;28;20074;-67
2023/04/08 00:32:49;;;;;;;17.40;11.50;;;;;;;6.29;100.00;102294.44;10167143;28;20041;-67
2023/04/08 00:37:46;;;;;;;16.77;11.90;;;;;;;6.41;100.00;102292.41;10163398;28;20053;-67
2023/04/08 00:42:43;;;;;;;16.27;12.43;;;;;;;6.25;100.00;102304.13;10170970;28;20447;-67
2023/04/08 00:47:39;;;;;;;21.63;12.60;;;;;;;6.32;100.00;102304.78;10180414;28;20507;-67
2023/04/08 00:52:36;;;;;;;15.68;10.52;;;;;;;6.51;100.00;102305.31;10175498;28;20080;-66
2023/04/08 00:57:33;;;;;;;16.13;11.07;;;;;;;6.45;100.00;102299.00;10162085;28;20069;-67
2023/04/08 01:02:44;;;;;;;15.25;11.73;;;;;;;6.38;100.00;102303.75;10176376;28;20140;-69
2023/04/08 01:07:47;;;;;;;17.67;11.18;;;;;;;6.39;100.00;102310.03;10169124;28;20052;-65
2023/04/08 01:12:54;;;;;;;13.13;10.10;;;;;;;6.44;100.00;102308.19;10168178;28;20048;-67
2023/04/08 01:17:55;;;;;;;18.58;10.80;;;;;;;6.48;100.00;102311.25;10155999;28;20101;-67
2023/04/08 01:23:22;;;;;;;17.35;11.10;;;;;;;6.47;100.00;102301.44;10170185;28;20058;-66
2023/04/08 01:28:21;;;;;;;17.08;10.80;;;;;;;6.42;100.00;102304.91;10168778;28;20059;-68
2023/04/08 01:33:18;;;;;;;16.48;10.88;;;;;;;6.23;100.00;102300.84;10175961;28;20054;-68
2023/04/08 01:38:18;;;;;;;17.40;11.75;;;;;;;6.40;100.00;102306.22;10164647;28;20418;-68
2023/04/08 01:43:16;;;;;;;18.33;11.70;;;;;;;6.19;100.00;102299.69;10170010;28;20096;-68
2023/04/08 01:48:14;;;;;;;16.95;10.82;;;;;;;6.44;100.00;102299.22;10183401;28;20133;-68
2023/04/08 01:53:11;;;;;;;17.13;11.05;;;;;;;6.29;100.00;102294.44;10179266;28;20046;-68
2023/04/08 01:58:13;;;;;;;17.45;11.20;;;;;;;6.28;100.00;102290.03;10185137;28;20053;-68
2023/04/08 02:03:11;;;;;;;20.70;10.83;;;;;;;6.00;100.00;102280.94;10173788;28;20050;-68
2023/04/08 02:08:08;;;;;;;20.85;12.30;;;;;;;5.89;100.00;102290.81;10182911;28;20050;-68
2023/04/08 02:13:05;;;;;;;17.27;10.95;;;;;;;6.11;100.00;102285.47;10176485;28;20054;-68
2023/04/08 02:18:15;;;;;;;18.90;11.05;;;;;;;5.99;100.00;102289.38;10174516;28;20551;-68
2023/04/08 02:23:19;;;;;;;16.42;11.25;;;;;;;6.20;100.00;102280.44;10180245;28;20046;-68
2023/04/08 02:28:17;;;;;;;16.05;10.45;;;;;;;6.14;100.00;102280.63;10173135;28;20046;-68
2023/04/08 02:33:18;;;;;;;13.45;10.30;;;;;;;6.15;100.00;102282.25;10178681;28;20112;-68
2023/04/08 02:38:14;;;;;;;13.55;10.13;;;;;;;6.23;100.00;102279.13;10175855;28;20073;-68
2023/04/08 02:43:11;;;;;;;13.75;10.32;;;;;;;6.07;100.00;102281.59;10185624;28;20048;-68
2023/04/08 02:48:07;;;;;;;13.27;10.07;;;;;;;6.13;100.00;102285.22;10178017;28;20561;-68
2023/04/08 02:53:04;;;;;;;15.18;9.63;;;;;;;5.99;100.00;102295.63;10174996;28;20046;-68
2023/04/08 02:58:00;;;;;;;16.75;11.93;;;;;;;5.99;100.00;102295.63;10178069;28;20417;-68
2023/04/08 03:02:57;;;;;;;15.85;11.45;;;;;;;6.03;100.00;102285.88;10174570;28;20042;-68
2023/04/08 03:07:54;;;;;;;18.65;11.40;;;;;;;6.03;100.00;102296.75;10177781;28;20046;-68
2023/04/08 03:12:50;;;;;;;15.63;12.20;;;;;;;6.13;100.00;102296.09;10174303;28;20737;-68
2023/04/08 03:17:47;;;;;;;18.38;11.73;;;;;;;6.03;100.00;102302.16;10169779;28;20060;-68
2023/04/08 03:22:43;;;;;;;17.40;12.40;;;;;;;5.80;100.00;102308.59;10176277;28;20495;-68
2023/04/08 03:27:40;;;;;;;22.75;13.00;;;;;;;5.87;100.00;102324.69;10176489;28;20076;-68
2023/04/08 03:32:36;;;;;;;22.58;13.98;;;;;;;5.91;100.00;102320.41;10170087;28;20058;-68
2023/04/08 03:37:33;;;;;;;23.10;14.90;;;;;;;5.76;100.00;102328.31;10171952;28;20501;-68
2023/04/08 03:42:29;;;;;;;23.33;15.63;;;;;;;5.90;100.00;102335.06;10171842;28;20065;-68
2023/04/08 03:47:26;;;;;;;26.25;15.93;;;;;;;5.79;100.00;102335.97;10181723;28;20142;-68
2023/04/08 03:52:23;;;;;;;25.27;16.10;;;;;;;5.98;100.00;102337.41;10167232;28;20057;-68
2023/04/08 03:57:20;;;;;;;26.98;17.58;;;;;;;5.79;100.00;102335.97;10164851;28;20136;-68
2023/04/08 04:02:16;;;;;;;29.73;17.40;;;;;;;5.72;100.00;102348.88;10177434;28;20136;-68
2023/04/08 04:07:13;;;;;;;25.48;16.60;;;;;;;5.75;100.00;102349.19;10169090;28;20065;-68
2023/04/08 04:12:09;;;;;;;27.65;16.75;;;;;;;5.72;100.00;102352.41;10169251;28;20110;-68
2023/04/08 04:17:06;;;;;;;28.85;16.75;;;;;;;5.58;100.00;102353.78;10167693;28;20056;-68
2023/04/08 04:22:02;;;;;;;30.92;16.33;;;;;;;5.64;100.00;102359.06;10165237;28;20054;-68
2023/04/08 04:26:58;;;;;;;28.23;16.92;;;;;;;5.56;100.00;102356.75;10161177;28;20148;-68
2023/04/08 04:31:55;;;;;;;23.38;15.25;;;;;;;5.69;100.00;102361.06;10174757;28;20468;-68
2023/04/08 04:36:51;;;;;;;25.42;15.73;;;;;;;5.89;100.00;102361.41;10177543;28;20042;-68
2023/04/08 04:41:48;;;;;;;26.45;17.02;;;;;;;5.43;100.00;102370.59;10166519;28;20142;-68
2023/04/08 04:46:44;;;;;;;27.98;17.77;;;;;;;5.42;100.00;102371.69;10166665;28;20051;-68
2023/04/08 04:51:41;;;;;;;23.27;15.13;;;;;;;5.68;100.00;102384.63;10178055;28;20037;-68
2023/04/08 04:56:37;;;;;;;27.20;16.15;;;;;;;5.74;100.00;102390.19;10173550;28;20451;-68
2023/04/08 05:01:34;;;;;;;22.98;14.52;;;;;;;5.72;100.00;102392.31;10175309;28;20042;-68
2023/04/08 05:06:30;;;;;;;26.83;15.63;;;;;;;5.81;100.00;102398.97;10171912;28;20713;-68
2023/04/08 05:11:27;;;;;;;30.15;17.00;;;;;;;5.78;100.00;102402.16;10176588;28;20116;-68
2023/04/08 05:16:23;;;;;;;29.80;15.52;;;;;;;5.73;100.00;102393.94;10165728;28;20050;-68
2023/04/08 05:21:20;;;;;;;26.10;15.27;;;;;;;5.79;100.00;102398.41;10185217;28;20100;-68
2023/04/08 05:26:16;;;;;;;30.98;16.65;;;;;;;5.79;100.00;102398.41;10172866;28;20085;-68
2023/04/08 05:31:16;;;;;;;23.77;14.05;;;;;;;5.89;100.00;102402.13;10175336;28;20042;-68
2023/04/08 05:36:13;;;;;;;25.10;15.82;;;;;;;6.00;100.00;102410.47;10179200;28;20092;-68
2023/04/08 05:41:10;;;;;;;24.13;15.82;;;;;;;5.89;100.00;102413.00;10176271;28;20038;-68
2023/04/08 05:46:08;;;;;;;24.95;15.88;;;;;;;5.90;100.00;102413.81;10167472;28;20553;-69
2023/04/08 05:51:04;;;;;;;25.30;15.15;;;;;;;5.90;100.00;102419.22;10178850;28;20061;-68
2023/04/08 05:56:01;;;;;;;29.85;16.02;;;;;;;5.69;100.00;102421.56;10177068;28;20066;-68
2023/04/08 06:00:57;;;;;;;28.10;17.00;;;;;;;5.76;100.00;102436.91;10184691;28;20077;-68
2023/04/08 06:05:54;;;;;;;25.40;15.98;;;;;;;5.67;100.00;102429.13;10178193;28;20074;-68
2023/04/08 06:10:51;;;;;;;23.15;15.15;;;;;;;5.77;100.00;102430.38;10176122;28;22257;-68
2023/04/08 06:15:48;;;;;;;28.42;17.35;;;;;;;5.75;100.00;102440.66;10171958;28;20211;-68
2023/04/08 06:20:45;;;;;;;33.95;21.17;;;;;;;5.69;100.00;102448.72;10168574;28;20048;-68
2023/04/08 06:25:41;;;;;;;26.85;15.75;;;;;;;5.85;100.00;102446.28;10169646;28;20121;-68
2023/04/08 06:30:38;;;;;;;30.25;17.00;;;;;;;5.88;100.00;102445.81;10172035;28;20068;-68
2023/04/08 06:35:36;;;;;;;31.67;17.52;;;;;;;5.82;100.00;102457.63;10174885;28;20077;-68
2023/04/08 06:40:32;;;;;;;27.58;16.83;;;;;;;6.00;100.00;102460.16;10180942;28;20128;-68
2023/04/08 06:45:29;;;;;;;28.05;16.80;;;;;;;5.89;100.00;102469.16;10169079;28;20077;-68
2023/04/08 06:50:25;;;;;;;26.95;17.65;;;;;;;5.89;100.00;102471.88;10172286;28;20145;-68
2023/04/08 06:55:22;;;;;;;33.60;18.55;;;;;;;5.70;100.00;102477.50;10178890;28;20100;-68
2023/04/08 07:00:18;;;;;;;23.40;15.20;;;;;;;5.98;100.00;102483.19;10159340;28;20057;-68
2023/04/08 07:05:15;;;;;;;29.73;16.15;;;;;;;6.00;100.00;102487.31;10164533;28;20045;-69
2023/04/08 07:10:12;;;;;;;25.20;15.70;;;;;;;6.02;100.00;102493.31;10182003;28;20125;-68
2023/04/08 07:15:09;;;;;;;24.02;15.27;;;;;;;5.88;100.00;102495.47;10160835;28;20202;-68
2023/04/08 07:20:06;;;;;;;21.35;14.00;;;;;;;5.99;100.00;102491.13;10172907;28;20519;-69
2023/04/08 07:25:03;;;;;;;23.75;15.27;;;;;;;5.89;100.00;102490.88;10165821;28;20093;-69
2023/04/08 07:30:00;;;;;;;24.08;16.17;;;;;;;6.23;100.00;102496.41;10167573;28;20050;-68
2023/04/08 07:34:58;;;;;;;22.88;16.00;;;;;;;6.36;100.00;102496.09;10172745;28;20133;-68
2023/04/08 07:39:54;;;;;;;33.65;19.25;;;;;;;5.91;100.00;102499.59;10163164;28;20054;-68
2023/04/08 07:44:51;;;;;;;29.90;19.27;;;;;;;6.21;100.00;102503.97;10168565;28;20054;-68
2023/04/08 07:49:47;;;;;;;28.55;17.75;;;;;;;6.22;100.00;102511.91;10170036;28;20046;-68
2023/04/08 07:54:44;;;;;;;29.02;16.92;;;;;;;6.18;100.00;102523.50;10167295;28;20047;-67
2023/04/08 07:59:40;;;;;;;21.95;15.32;;;;;;;6.19;100.00;102527.84;10164926;28;20100;-68
2023/04/08 08:04:37;;;;;;;21.80;15.30;;;;;;;6.18;100.00;102537.06;10173809;28;20474;-68
2023/04/08 08:09:35;;;;;;;24.13;14.70;;;;;;;6.13;100.00;102539.66;10169103;28;20101;-68
2023/04/08 08:14:31;;;;;;;21.60;14.77;;;;;;;6.20;100.00;102549.34;10165006;28;20512;-68
2023/04/08 08:19:27;;;;;;;21.27;13.60;;;;;;;6.26;100.00;102539.38;10172044;28;20069;-68
2023/04/08 08:24:24;;;;;;;20.45;14.45;;;;;;;6.22;100.00;102543.63;10174390;28;20069;-68
2023/04/08 08:29:21;;;;;;;23.17;14.27;;;;;;;6.36;100.00;102542.28;10163022;28;20052;-68
2023/04/08 08:34:17;;;;;;;20.55;13.35;;;;;;;6.42;100.00;102549.44;10172459;28;20053;-68
2023/04/08 08:39:14;;;;;;;22.17;13.90;;;;;;;6.72;100.00;102551.03;10171560;28;20070;-67
2023/04/08 08:44:11;;;;;;;20.70;14.32;;;;;;;6.83;100.00;102552.84;10173266;28;20125;-68
2023/04/08 08:49:08;;;;;;;20.33;13.32;;;;;;;6.95;100.00;102550.88;10178637;28;20150;-67
2023/04/08 08:54:04;;;;;;;20.27;14.02;;;;;;;6.95;100.00;102560.94;10160541;28;20448;-67
2023/04/08 08:59:01;;;;;;;24.95;14.70;;;;;;;6.88;100.00;102563.81;10162472;28;20042;-67
2023/04/08 09:04:09;;;;;;;22.35;14.63;;;;;;;7.00;100.00;102560.19;10154996;28;20142;-67
2023/04/08 09:09:09;;;;;;;23.80;16.15;;;;;;;6.71;100.00;102563.81;10164057;28;20052;-66
2023/04/08 09:14:25;;;;;;;18.70;12.93;;;;;;;7.24;100.00;102558.94;10176461;28;20129;-67
2023/04/08 09:19:21;;;;;;;18.30;13.02;;;;;;;7.34;100.00;102567.22;10168538;28;20539;-67
2023/04/08 09:24:27;;;;;;;19.42;14.80;;;;;;;7.21;100.00;102583.06;10176459;28;20046;-67
2023/04/08 09:29:25;;;;;;;18.15;13.43;;;;;;;7.35;100.00;102578.94;10176213;28;20076;-67
2023/04/08 09:34:26;;;;;;;16.20;12.45;;;;;;;7.45;100.00;102578.22;10169647;28;20042;-67
2023/04/08 09:39:23;;;;;;;18.42;12.57;;;;;;;7.64;100.00;102581.50;10175105;28;20088;-67
2023/04/08 09:44:20;;;;;;;18.55;12.57;;;;;;;7.57;100.00;102589.84;10169390;28;20396;-68
2023/04/08 09:49:26;;;;;;;21.48;13.88;;;;;;;7.65;100.00;102589.41;10175536;28;20066;-67
2023/04/08 09:54:35;;;;;;;18.05;13.13;;;;;;;7.59;100.00;102590.44;10160875;28;20042;-67
2023/04/08 09:59:35;;;;;;;19.30;13.38;;;;;;;7.66;100.00;102595.66;10172502;28;20042;-67
2023/04/08 10:04:37;;;;;;;22.67;14.55;;;;;;;7.50;100.00;102591.94;10172236;28;20042;-67
2023/04/08 10:09:33;;;;;;;22.58;14.35;;;;;;;7.59;100.00;102595.88;10168827;28;20108;-67
2023/04/08 10:14:30;;;;;;;21.73;15.45;;;;;;;7.90;100.00;102591.63;10173052;28;20103;-67
2023/04/08 10:19:40;;;;;;;21.85;13.32;;;;;;;7.87;100.00;102591.34;10177651;28;20048;-67
2023/04/08 10:24:36;;;;;;;20.08;13.93;;;;;;;7.61;100.00;102592.88;10178086;28;20128;-67
2023/04/08 10:29:33;;;;;;;20.23;14.18;;;;;;;7.67;100.00;102591.88;10173617;28;20144;-67
2023/04/08 10:34:29;;;;;;;21.02;14.00;;;;;;;7.70;100.00;102591.38;10165298;28;20046;-68
2023/04/08 10:39:26;;;;;;;18.15;12.45;;;;;;;7.67;100.00;102592.69;10168987;28;20085;-67
2023/04/08 10:44:25;;;;;;;19.85;13.43;;;;;;;7.58;100.00;102602.38;10175061;28;20038;-67
2023/04/08 10:49:32;;;;;;;20.48;13.32;;;;;;;7.60;100.00;102600.22;10175799;28;20085;-67
2023/04/08 10:54:28;;;;;;;20.48;15.45;;;;;;;7.56;100.00;102609.97;10180054;28;20092;-67
2023/04/08 10:59:30;;;;;;;20.45;14.07;;;;;;;7.73;100.00;102602.59;10180414;28;20042;-67
2023/04/08 11:04:27;;;;;;;28.95;15.60;;;;;;;7.66;100.00;102606.56;10183265;28;20045;-68
2023/04/08 11:09:24;;;;;;;29.48;17.52;;;;;;;7.32;100.00;102612.91;10180048;28;20087;-67
2023/04/08 11:14:21;;;;;;;24.17;17.00;;;;;;;7.60;100.00;102608.41;10167879;28;20042;-67
2023/04/08 11:19:18;;;;;;;26.70;17.90;;;;;;;7.63;100.00;102607.88;10169478;28;20050;-67
2023/04/08 11:24:15;;;;;;;30.00;19.08;;;;;;;7.72;100.00;102617.28;10158018;28;20057;-67
2023/04/08 11:29:15;;;;;;;28.85;18.88;;;;;;;7.80;100.00;102608.69;10179419;28;20053;-67
2023/04/08 11:34:21;;;;;;;26.42;17.60;;;;;;;7.62;100.00;102611.69;10169411;28;20068;-67
2023/04/08 11:39:21;;;;;;;25.33;17.25;;;;;;;7.73;100.00;102602.59;10175818;28;20058;-67
2023/04/08 11:44:18;;;;;;;23.77;17.08;;;;;;;7.84;100.00;102602.72;10174887;28;20053;-67
2023/04/08 11:49:15;;;;;;;28.05;16.58;;;;;;;7.78;100.00;102608.09;10181450;28;20504;-68
2023/04/08 11:54:28;;;;;;;22.63;15.13;;;;;;;7.87;100.00;102597.59;10171602;28;20074;-67
2023/04/08 11:59:25;;;;;;;19.45;14.00;;;;;;;8.09;100.00;102600.28;10171934;28;20133;-67
2023/04/08 12:04:24;;;;;;;21.42;14.48;;;;;;;8.14;100.00;102611.25;10170230;28;20046;-67
2023/04/08 12:09:21;;;;;;;23.08;15.70;;;;;;;7.94;100.00;102614.56;10180925;28;20054;-67
2023/04/08 12:14:18;;;;;;;22.10;15.73;;;;;;;8.13;100.00;102616.97;10166687;28;20065;-67
2023/04/08 12:19:14;;;;;;;26.70;15.80;;;;;;;8.21;100.00;102617.34;10175517;28;20046;-67
2023/04/08 12:24:10;;;;;;;20.35;14.07;;;;;;;8.21;100.00;102620.06;10169806;28;20085;-67
2023/04/08 12:29:10;;;;;;;19.15;13.60;;;;;;;8.43;100.00;102627.41;10161533;28;20757;-68
2023/04/08 12:34:07;;;;;;;20.48;15.48;;;;;;;8.36;100.00;102615.88;10164509;28;20449;-67
2023/04/08 12:39:03;;;;;;;29.73;17.58;;;;;;;7.84;100.00;102619.88;10168493;28;20050;-67
2023/04/08 12:44:00;;;;;;;23.23;16.13;;;;;;;8.01;100.00;102628.00;10179348;28;20047;-67
2023/04/08 12:48:56;;;;;;;31.42;18.40;;;;;;;7.99;100.00;102622.81;10171957;28;20144;-67
2023/04/08 12:54:02;;;;;;;26.15;17.20;;;;;;;8.16;100.00;102628.16;10170097;28;20050;-67
2023/04/08 12:58:59;;;;;;;22.33;16.73;;;;;;;8.01;100.00;102626.09;10178863;28;20639;-67
2023/04/08 13:03:56;;;;;;;20.75;14.82;;;;;;;8.07;100.00;102621.53;10177042;28;20050;-67
2023/04/08 13:08:53;;;;;;;22.83;15.13;;;;;;;8.42;100.00;102637.50;10181564;28;20038;-67
2023/04/08 13:13:50;;;;;;;24.88;15.98;;;;;;;8.47;100.00;102628.56;10180552;28;20050;-67
2023/04/08 13:18:46;;;;;;;20.55;14.77;;;;;;;8.33;100.00;102633.56;10171306;28;20125;-67
2023/04/08 13:23:42;;;;;;;22.25;17.23;;;;;;;7.89;100.00;102640.91;10166289;28;20053;-67
2023/04/08 13:28:39;;;;;;;24.70;17.05;;;;;;;7.94;100.00;102636.38;10172281;28;20038;-67
2023/04/08 13:33:49;;;;;;;23.17;16.52;;;;;;;8.04;100.00;102635.66;10168056;28;20046;-67
2023/04/08 13:38:45;;;;;;;22.95;16.42;;;;;;;8.11;100.00;102641.72;10173570;28;20096;-68
2023/04/08 13:43:42;;;;;;;23.88;16.10;;;;;;;8.32;100.00;102631.91;10172370;28;20420;-67
2023/04/08 13:48:38;;;;;;;22.23;16.63;;;;;;;8.38;100.00;102630.06;10177407;28;20129;-68
2023/04/08 13:53:35;;;;;;;24.08;17.27;;;;;;;8.06;100.00;102628.06;10168511;28;20100;-67
2023/04/08 13:58:32;;;;;;;20.15;15.05;;;;;;;8.22;100.00;102635.34;10165397;28;20038;-67
2023/04/08 14:03:28;;;;;;;27.42;17.90;;;;;;;8.02;100.00;102633.19;10181366;28;20042;-67
2023/04/08 14:08:25;;;;;;;21.73;16.15;;;;;;;8.04;100.00;102627.47;10173169;28;20053;-67
2023/04/08 14:13:21;;;;;;;23.80;16.05;;;;;;;8.05;100.00;102636.47;10176335;28;20042;-67
2023/04/08 14:18:18;;;;;;;23.90;18.00;;;;;;;7.93;100.00;102633.88;10171203;28;20080;-67
2023/04/08 14:23:15;;;;;;;24.98;18.02;;;;;;;7.95;100.00;102631.72;10171882;28;20039;-67
2023/04/08 14:28:12;;;;;;;18.80;15.05;;;;;;;7.85;100.00;102637.06;10166519;28;20038;-67
2023/04/08 14:33:08;;;;;;;24.77;16.67;;;;;;;7.91;100.00;102641.47;10169389;28;20066;-68
2023/04/08 14:38:05;;;;;;;22.50;16.33;;;;;;;7.74;100.00;102636.09;10180146;28;20089;-67
2023/04/08 14:43:02;;;;;;;23.13;16.55;;;;;;;7.90;100.00;102628.94;10166593;28;20050;-67
2023/04/08 14:47:58;;;;;;;24.95;16.90;;;;;;;7.48;100.00;102640.34;10182911;28;20041;-67
2023/04/08 14:52:55;;;;;;;23.13;17.55;;;;;;;7.45;100.00;102635.41;10181933;28;20108;-67
2023/04/08 14:57:51;;;;;;;23.58;18.35;;;;;;;7.73;100.00;102629.81;10169217;28;20049;-67
2023/04/08 15:02:47;;;;;;;29.48;18.33;;;;;;;7.72;100.00;102639.06;10183267;28;20049;-67
2023/04/08 15:07:46;;;;;;;27.40;17.40;;;;;;;7.65;100.00;102638.41;10170453;28;20048;-67
2023/04/08 15:12:42;;;;;;;25.55;19.35;;;;;;;7.82;100.00;102637.53;10181396;28;20500;-67
2023/04/08 15:17:39;;;;;;;26.33;18.00;;;;;;;7.58;100.00;102632.31;10179901;28;20100;-67
2023/04/08 15:22:35;;;;;;;30.05;20.20;;;;;;;7.62;100.00;102633.47;10182373;28;20080;-67
2023/04/08 15:27:33;;;;;;;27.70;18.55;;;;;;;7.58;100.00;102637.78;10182558;28;20073;-67
2023/04/08 15:32:29;;;;;;;30.75;20.42;;;;;;;7.78;100.00;102638.06;10171271;28;20069;-67
2023/04/08 15:37:26;;;;;;;33.60;23.75;;;;;;;7.84;100.00;102647.09;10173472;28;20550;-67
2023/04/08 15:42:23;;;;;;;30.92;22.30;;;;;;;7.62;100.00;102649.81;10173263;28;20046;-67
2023/04/08 15:47:19;;;;;;;31.52;22.42;;;;;;;7.70;100.00;102651.28;10174253;28;20412;-67
2023/04/08 15:52:15;;;;;;;30.90;19.92;;;;;;;7.60;100.00;102668.28;10165162;28;20053;-67
2023/04/08 15:57:12;;;;;;;32.70;23.58;;;;;;;7.36;100.00;102657.59;10176651;28;20121;-67
2023/04/08 16:02:10;;;;;;;34.25;22.83;;;;;;;7.35;100.00;102666.81;10161104;28;20046;-67
2023/04/08 16:07:07;;;;;;;36.67;24.58;;;;;;;7.41;100.00;102670.47;10167522;28;20045;-67
2023/04/08 16:12:03;;;;;;;40.92;26.05;;;;;;;7.53;100.00;102667.66;10177302;28;20070;-67
2023/04/08 16:17:00;;;;;;;49.67;30.05;;;;;;;7.51;100.00;102664.34;10172854;28;20069;-66
2023/04/08 16:21:57;;;;;;;37.58;26.52;;;;;;;7.61;100.00;102653.59;10174184;28;20046;-67
2023/04/08 16:26:53;;;;;;;35.80;24.35;;;;;;;7.46;100.00;102667.00;10182587;28;20069;-67
2023/04/08 16:31:50;;;;;;;35.58;24.83;;;;;;;7.40;100.00;102662.53;10172257;28;20050;-67
2023/04/08 16:36:50;;;;;;;39.65;25.27;;;;;;;7.18;100.00;102663.28;10170949;28;20153;-67
2023/04/08 16:41:47;;;;;;;40.45;25.73;;;;;;;7.36;100.00;102663.03;10172690;28;20081;-67
2023/04/08 16:46:43;;;;;;;39.60;24.83;;;;;;;7.57;100.00;102679.69;10168911;28;20501;-67
2023/04/08 16:51:39;;;;;;;36.85;24.58;;;;;;;7.48;100.00;102668.41;10167335;28;20046;-67
2023/04/08 16:56:36;;;;;;;38.03;26.13;;;;;;;7.44;100.00;102677.31;10164068;28;20129;-67
2023/04/08 17:01:32;;;;;;;41.35;26.17;;;;;;;7.55;100.00;102671.75;10184974;28;20052;-67
2023/04/08 17:06:30;;;;;;;37.35;26.45;;;;;;;7.28;100.00;102671.59;10177676;28;20041;-67
2023/04/08 17:11:26;;;;;;;36.53;24.27;;;;;;;7.25;100.00;102677.56;10174760;28;20443;-67
2023/04/08 17:16:24;;;;;;;44.70;28.15;;;;;;;7.31;100.00;102670.28;10163458;28;20455;-67
2023/04/08 17:21:20;;;;;;;49.47;31.75;;;;;;;7.25;100.00;102676.75;10174021;28;20066;-67
2023/04/08 17:26:17;;;;;;;56.13;35.08;;;;;;;7.18;100.00;102676.91;10158087;28;20066;-67
2023/04/08 17:31:13;;;;;;;49.20;30.90;;;;;;;7.24;100.00;102681.38;10170746;28;20053;-67
2023/04/08 17:36:10;;;;;;;47.13;31.85;;;;;;;7.08;100.00;102676.75;10168062;28;20073;-67
2023/04/08 17:41:07;;;;;;;47.55;31.42;;;;;;;7.31;100.00;102678.44;10160648;28;20827;-67
2023/04/08 17:46:04;;;;;;;48.03;31.05;;;;;;;7.11;100.00;102684.41;10173706;28;20549;-67
2023/04/08 17:51:05;;;;;;;47.17;31.50;;;;;;;7.20;100.00;102682.91;10171449;28;20547;-67
2023/04/08 17:56:01;;;;;;;51.38;33.97;;;;;;;7.19;100.00;102681.25;10169577;28;20129;-67
2023/04/08 18:00:58;;;;;;;45.35;30.38;;;;;;;7.19;100.00;102678.53;10178234;28;20042;-67
2023/04/08 18:05:55;;;;;;;43.45;29.38;;;;;;;7.16;100.00;102684.47;10169164;28;20104;-67
2023/04/08 18:10:51;;;;;;;42.67;30.75;;;;;;;7.12;100.00;102689.56;10179539;28;20583;-66
2023/04/08 18:15:48;;;;;;;46.05;30.30;;;;;;;7.17;100.00;102694.28;10165451;28;20052;-67
2023/04/08 18:20:44;;;;;;;46.35;30.15;;;;;;;7.17;100.00;102699.72;10166782;28;20567;-67
2023/04/08 18:25:43;;;;;;;50.30;33.28;;;;;;;7.05;100.00;102704.41;10165653;28;20061;-66
2023/04/08 18:30:41;;;;;;;44.47;30.75;;;;;;;7.11;100.00;102703.44;10188939;28;20072;-67
2023/04/08 18:35:37;;;;;;;73.13;39.05;;;;;;;6.92;100.00;102700.94;10173024;28;20048;-67
2023/04/08 18:40:34;;;;;;;64.80;41.78;;;;;;;7.01;100.00;102708.69;10163677;28;20050;-67
2023/04/08 18:45:30;;;;;;;71.70;40.08;;;;;;;7.06;100.00;102712.34;10182677;28;20129;-67
2023/04/08 18:50:27;;;;;;;69.35;39.08;;;;;;;7.09;100.00;102721.91;10172056;28;20507;-67
2023/04/08 18:55:23;;;;;;;74.90;43.65;;;;;;;7.08;100.00;102725.72;10171367;28;20065;-67
2023/04/08 19:00:20;;;;;;;73.57;43.65;;;;;;;6.97;100.00;102732.03;10169990;28;20563;-68
2023/04/08 19:05:16;;;;;;;63.63;37.22;;;;;;;7.02;100.00;102727.50;10169480;28;20046;-67
2023/04/08 19:10:13;;;;;;;61.55;37.30;;;;;;;7.01;100.00;102735.88;10180957;28;20045;-67
2023/04/08 19:15:10;;;;;;;67.78;38.60;;;;;;;7.03;100.00;102739.19;10166734;28;20483;-67
2023/04/08 19:20:07;;;;;;;62.95;35.50;;;;;;;7.05;100.00;102726.19;10171323;28;20141;-67
2023/04/08 19:25:04;;;;;;;77.93;46.00;;;;;;;7.01;100.00;102730.44;10177354;28;20443;-68
2023/04/08 19:30:00;;;;;;;75.70;44.92;;;;;;;7.04;100.00;102735.41;10172847;28;20124;-67
2023/04/08 19:34:56;;;;;;;76.07;43.58;;;;;;;7.12;100.00;102724.13;10169049;28;20465;-66
2023/04/08 19:39:53;;;;;;;73.05;45.40;;;;;;;7.03;100.00;102712.84;10161647;28;20042;-66
2023/04/08 19:44:50;;;;;;;79.22;45.15;;;;;;;7.08;100.00;102709.38;10176478;28;20080;-67
2023/04/08 19:49:46;;;;;;;74.43;42.08;;;;;;;7.08;100.00;102718.38;10176595;28;20077;-67
2023/04/08 19:54:43;;;;;;;82.10;43.60;;;;;;;6.97;100.00;102718.44;10172718;28;20058;-67
2023/04/08 19:59:39;;;;;;;65.07;36.35;;;;;;;6.95;100.00;102722.19;10165430;28;20068;-67
2023/04/08 20:04:36;;;;;;;74.93;41.92;;;;;;;6.90;100.00;102724.84;10178223;28;20579;-67
2023/04/08 20:09:32;;;;;;;71.38;40.90;;;;;;;6.91;100.00;102731.91;10162781;28;20041;-67
2023/04/08 20:14:30;;;;;;;78.55;41.95;;;;;;;6.94;100.00;102731.44;10175659;28;20480;-67
2023/04/08 20:19:27;;;;;;;84.63;44.45;;;;;;;6.82;100.00;102730.66;10157828;28;20073;-67
2023/04/08 20:24:23;;;;;;;89.75;43.88;;;;;;;6.84;100.00;102736.66;10163835;28;20611;-67
2023/04/08 20:29:20;;;;;;;88.32;44.90;;;;;;;6.78;100.00;102739.53;10177411;28;20137;-67
2023/04/08 20:34:16;;;;;;;90.40;48.30;;;;;;;6.80;100.00;102746.41;10165678;28;20061;-67
2023/04/08 20:39:12;;;;;;;83.30;45.42;;;;;;;6.91;100.00;102752.84;10169473;28;20043;-67
2023/04/08 20:44:09;;;;;;;92.75;49.00;;;;;;;6.84;100.00;102744.81;10159565;28;20516;-67
2023/04/08 20:49:06;;;;;;;91.15;45.38;;;;;;;6.87;100.00;102747.09;10160580;28;20057;-67
2023/04/08 20:54:03;;;;;;;82.95;45.67;;;;;;;6.80;100.00;102740.97;10167394;28;20050;-67
2023/04/08 20:59:00;;;;;;;85.22;44.63;;;;;;;6.78;100.00;102737.66;10165794;28;20050;-67
2023/04/08 21:03:56;;;;;;;79.78;43.85;;;;;;;6.79;100.00;102750.19;10168865;28;20448;-67
2023/04/08 21:08:53;;;;;;;87.03;45.72;;;;;;;6.79;100.00;102742.03;10172795;28;20042;-67
2023/04/08 21:13:49;;;;;;;77.82;42.90;;;;;;;6.71;100.00;102747.84;10166671;28;20057;-67
2023/04/08 21:18:46;;;;;;;77.03;41.50;;;;;;;6.77;100.00;102746.88;10162713;28;20500;-67
2023/04/08 21:23:42;;;;;;;70.07;39.33;;;;;;;6.79;100.00;102742.03;10166559;28;20062;-67
2023/04/08 21:28:39;;;;;;;77.72;42.05;;;;;;;6.73;100.00;102737.56;10179514;28;20120;-67
2023/04/08 21:33:36;;;;;;;75.97;40.08;;;;;;;6.72;100.00;102738.63;10168637;28;20103;-67
2023/04/08 21:38:33;;;;;;;73.03;41.20;;;;;;;6.73;100.00;102740.28;10173372;28;20053;-67
2023/04/08 21:43:29;;;;;;;69.15;39.90;;;;;;;6.62;100.00;102743.88;10172758;28;20133;-67
2023/04/08 21:48:26;;;;;;;67.95;38.70;;;;;;;6.74;100.00;102747.38;10178991;28;20132;-67
2023/04/08 21:53:22;;;;;;;65.38;36.97;;;;;;;6.72;100.00;102741.34;10171845;28;20444;-67
2023/04/08 21:58:19;;;;;;;72.07;39.90;;;;;;;6.64;100.00;102747.19;10166988;28;20488;-67
2023/04/08 22:03:16;;;;;;;65.25;35.92;;;;;;;6.78;100.00;102748.53;10184928;28;20463;-67
2023/04/08 22:08:13;;;;;;;76.13;43.65;;;;;;;6.63;100.00;102750.94;10179458;28;20121;-67
2023/04/08 22:13:10;;;;;;;69.00;39.10;;;;;;;6.66;100.00;102748.59;10177342;28;20042;-67
2023/04/08 22:18:07;;;;;;;68.38;39.80;;;;;;;6.70;100.00;102752.44;10164908;28;20046;-67